Time;durP1;ratioP1;P1;durP2;ratioP2;P2;SDS_P1;SDS_P2;PMS_P1;PMS_P2;Temp;Humidity;BMP_temperature;BMP_pressure;BME280_temperature;BME280_humidity;BME280_pressure;Samples;Min_cycle;Max_cycle;Signal;HPM_P1;HPM_P2
2022/02/11 00:15:02;;;;;;;0.80;0.20;;;5.10;99.90;;;;;;20762366;28;20057;-45
2022/02/11 00:36:06;;;;;;;4.43;0.40;;;5.40;99.90;;;;;;20768532;28;20422;-45
2022/02/11 01:06:30;;;;;;;2.88;0.55;;;6.00;99.90;;;;;;20794566;28;20045;-45
2022/02/11 01:16:45;;;;;;;13.05;1.38;;;5.90;99.90;;;;;;20814236;28;20037;-45
2022/02/11 01:37:35;;;;;;;1.75;0.40;;;6.00;99.90;;;;;;20726687;28;20049;-45
2022/02/11 02:29:54;;;;;;;5.10;0.52;;;5.50;99.90;;;;;;20716669;28;20034;-45
2022/02/11 05:02:35;;;;;;;0.90;0.22;;;6.00;99.90;;;;;;20688631;28;20042;-44
2022/02/11 05:12:36;;;;;;;1.50;0.40;;;6.00;99.90;;;;;;20677771;28;20047;-45
2022/02/11 05:22:37;;;;;;;3.33;0.40;;;5.80;99.90;;;;;;20695843;28;20053;-45
2022/02/11 05:32:38;;;;;;;3.22;0.47;;;5.70;99.90;;;;;;20684996;28;20691;-45
2022/02/11 05:42:39;;;;;;;0.45;0.20;;;5.70;99.90;;;;;;20776513;28;20281;-45
2022/02/11 05:52:41;;;;;;;2.13;0.47;;;5.70;99.90;;;;;;20720889;28;20050;-44
2022/02/11 06:02:42;;;;;;;3.63;0.40;;;5.50;99.90;;;;;;20743045;28;20498;-45
2022/02/11 06:12:48;;;;;;;2.38;0.70;;;5.20;99.90;;;;;;20709772;28;20100;-45
2022/02/11 06:22:49;;;;;;;0.93;0.30;;;4.90;99.90;;;;;;20611447;28;20487;-44
2022/02/11 06:32:50;;;;;;;6.97;1.30;;;4.80;99.90;;;;;;20641232;28;20470;-45
2022/02/11 06:42:51;;;;;;;3.40;0.35;;;4.90;99.90;;;;;;20648087;28;20124;-45
2022/02/11 06:52:55;;;;;;;9.68;0.40;;;4.80;99.90;;;;;;20718006;28;20045;-44
2022/02/11 07:02:56;;;;;;;0.85;0.22;;;5.00;99.90;;;;;;20699257;28;20042;-45
2022/02/11 07:12:57;;;;;;;2.17;0.40;;;4.80;99.90;;;;;;20750555;28;20501;-44
2022/02/11 07:22:58;;;;;;;0.93;0.22;;;4.70;99.90;;;;;;20740455;28;20512;-44
2022/02/11 07:33:00;;;;;;;3.75;0.45;;;4.60;99.90;;;;;;20741978;28;20058;-44
2022/02/11 07:43:02;;;;;;;4.72;0.45;;;4.30;99.90;;;;;;20674549;28;20038;-45
2022/02/11 07:53:03;;;;;;;5.18;1.02;;;4.50;99.90;;;;;;20708175;28;20045;-45
2022/02/11 08:03:05;;;;;;;0.68;0.20;;;4.50;99.90;;;;;;20696802;28;20139;-45
2022/02/11 08:13:07;;;;;;;4.82;0.82;;;4.40;99.90;;;;;;20722188;28;20049;-45
2022/02/11 08:23:08;;;;;;;5.50;1.73;;;4.50;99.90;;;;;;20643854;28;21066;-44
2022/02/11 08:33:09;;;;;;;2.95;0.40;;;4.60;99.90;;;;;;20282361;28;20098;-45
2022/02/11 08:43:12;;;;;;;6.55;0.57;;;4.90;99.90;;;;;;20246875;28;20046;-44
2022/02/11 08:53:13;;;;;;;3.92;1.30;;;5.20;99.90;;;;;;20203726;28;20050;-45
2022/02/11 09:03:15;;;;;;;2.72;0.50;;;5.60;99.90;;;;;;20196098;28;20046;-44
2022/02/11 09:13:16;;;;;;;7.38;1.15;;;6.10;99.90;;;;;;20234547;28;20705;-45
2022/02/11 09:23:20;;;;;;;3.65;0.55;;;6.00;99.90;;;;;;20253437;28;20079;-45
2022/02/11 09:33:21;;;;;;;7.03;0.57;;;6.10;99.90;;;;;;20223393;28;20056;-45
2022/02/11 09:43:25;;;;;;;1.15;0.35;;;6.50;99.90;;;;;;20295837;28;20207;-45
2022/02/11 09:53:28;;;;;;;3.10;0.40;;;6.70;99.90;;;;;;20272642;28;20555;-45
2022/02/11 10:03:30;;;;;;;4.43;1.45;;;6.90;99.90;;;;;;20278796;28;20025;-44
2022/02/11 10:13:34;;;;;;;3.50;0.52;;;7.00;99.90;;;;;;20291057;28;20762;-45
2022/02/11 10:23:43;;;;;;;5.72;0.65;;;7.10;99.90;;;;;;20287553;28;20432;-45
2022/02/11 10:34:11;;;;;;;1.15;0.22;;;6.70;99.90;;;;;;20668817;28;20133;-44
2022/02/11 10:44:14;;;;;;;2.50;0.25;;;6.90;99.90;;;;;;20740993;28;20525;-44
2022/02/11 10:54:45;;;;;;;2.75;0.47;;;7.10;99.90;;;;;;20476042;28;20159;-44
2022/02/11 11:04:48;;;;;;;0.75;0.20;;;7.30;99.90;;;;;;20262415;28;20056;-44
2022/02/11 11:14:50;;;;;;;2.67;0.68;;;7.50;99.90;;;;;;20287479;28;20046;-44
2022/02/11 11:24:58;;;;;;;4.15;0.40;;;8.10;99.90;;;;;;20339733;28;20038;-45
2022/02/11 11:35:06;;;;;;;1.77;0.10;;;8.10;99.90;;;;;;20323309;28;20054;-44
2022/02/11 11:45:27;;;;;;;0.85;0.28;;;8.00;99.90;;;;;;20316698;28;20474;-44
2022/02/11 11:55:36;;;;;;;2.00;0.40;;;7.70;99.90;;;;;;20285716;28;20073;-45
2022/02/11 12:06:00;;;;;;;1.17;0.10;;;7.50;99.90;;;;;;20272828;28;20026;-44
2022/02/11 12:16:03;;;;;;;3.58;0.50;;;7.70;99.90;;;;;;20328158;28;20413;-45
2022/02/11 12:36:24;;;;;;;3.53;1.00;;;7.90;99.90;;;;;;20329809;28;20385;-45
2022/02/11 12:46:28;;;;;;;3.20;0.32;;;8.20;99.90;;;;;;20336235;28;20037;-45
2022/02/11 12:56:33;;;;;;;2.40;0.40;;;8.20;99.90;;;;;;20268061;28;20207;-45
2022/02/11 13:06:41;;;;;;;1.10;0.20;;;7.80;99.90;;;;;;20312044;28;20037;-45
2022/02/11 13:16:42;;;;;;;0.75;0.25;;;7.80;99.90;;;;;;20349740;28;20103;-45
2022/02/11 13:27:03;;;;;;;0.63;0.20;;;8.10;99.90;;;;;;20355047;28;21120;-45
2022/02/11 13:37:10;;;;;;;0.60;0.20;;;7.60;99.90;;;;;;20335495;28;20061;-45
2022/02/11 13:47:32;;;;;;;1.80;0.08;;;8.10;99.90;;;;;;20355817;28;25510;-45
2022/02/11 13:57:35;;;;;;;1.70;0.30;;;8.60;99.90;;;;;;20326475;28;20046;-45
2022/02/11 14:07:50;;;;;;;1.70;0.20;;;8.80;99.90;;;;;;20251710;28;20037;-45
2022/02/11 14:18:03;;;;;;;1.40;0.20;;;8.20;99.90;;;;;;20223634;28;20176;-45
2022/02/11 14:28:12;;;;;;;7.93;1.55;;;7.80;99.90;;;;;;20238927;28;20770;-45
2022/02/11 14:38:13;;;;;;;0.52;0.30;;;8.30;99.90;;;;;;20238285;28;20045;-45
2022/02/11 14:48:14;;;;;;;4.20;0.50;;;8.70;99.90;;;;;;20285236;28;20678;-45
2022/02/11 14:58:15;;;;;;;0.75;0.20;;;8.00;99.90;;;;;;20309554;28;20052;-45
2022/02/11 15:08:16;;;;;;;0.52;0.15;;;7.60;99.90;;;;;;20329947;28;25068;-45
2022/02/11 15:18:27;;;;;;;1.42;0.25;;;7.60;99.90;;;;;;20333277;28;25277;-44
2022/02/11 15:28:49;;;;;;;4.30;0.30;;;7.80;99.90;;;;;;20324073;28;20060;-45
2022/02/11 15:38:51;;;;;;;4.22;0.28;;;7.90;99.90;;;;;;20514078;28;20033;-45
2022/02/11 15:48:52;;;;;;;0.93;0.30;;;7.60;99.90;;;;;;20728933;28;20048;-45
2022/02/11 15:58:53;;;;;;;1.73;0.40;;;7.30;99.90;;;;;;20669724;28;20129;-45
2022/02/11 16:09:01;;;;;;;4.88;0.50;;;6.90;99.90;;;;;;20610698;28;20053;-45
2022/02/11 16:19:03;;;;;;;0.43;0.13;;;6.60;99.90;;;;;;20625023;28;20505;-45
2022/02/11 16:29:04;;;;;;;1.73;0.30;;;6.40;99.90;;;;;;20755533;28;20041;-44
2022/02/11 16:39:08;;;;;;;1.85;0.30;;;6.20;99.90;;;;;;20772898;28;20045;-45
2022/02/11 16:49:13;;;;;;;3.83;1.63;;;6.00;99.90;;;;;;20681411;28;20061;-45
2022/02/11 16:59:15;;;;;;;3.42;1.77;;;5.70;99.90;;;;;;20772811;28;20182;-45
2022/02/11 17:09:16;;;;;;;7.68;1.38;;;5.50;99.90;;;;;;20801283;28;20053;-45
2022/02/11 17:19:22;;;;;;;2.22;1.02;;;5.20;99.90;;;;;;20792516;28;20049;-45
2022/02/11 17:29:24;;;;;;;3.60;0.75;;;5.00;99.90;;;;;;20773820;28;20045;-45
2022/02/11 17:39:32;;;;;;;5.72;1.13;;;4.70;99.90;;;;;;20671414;28;20038;-45
2022/02/11 17:49:34;;;;;;;3.85;1.23;;;4.50;99.90;;;;;;20657188;28;20038;-45
2022/02/11 17:59:35;;;;;;;1.60;0.80;;;4.30;99.90;;;;;;20765889;28;20520;-44
2022/02/11 18:09:38;;;;;;;1.83;0.50;;;4.10;99.90;;;;;;20719304;28;20048;-45
2022/02/11 18:19:40;;;;;;;2.13;0.70;;;3.90;99.90;;;;;;20730087;28;20045;-44
2022/02/11 18:29:41;;;;;;;2.08;0.80;;;3.70;99.90;;;;;;20791666;28;20053;-45
2022/02/11 18:39:42;;;;;;;3.33;1.25;;;3.60;99.90;;;;;;20684499;28;20045;-45
2022/02/11 18:49:45;;;;;;;6.25;1.17;;;3.50;99.90;;;;;;20767347;28;20049;-44
2022/02/11 19:10:06;;;;;;;1.80;0.68;;;3.30;99.90;;;;;;20702271;28;20141;-45
2022/02/11 19:20:10;;;;;;;2.17;1.05;;;3.10;99.90;;;;;;20654265;28;20053;-44
2022/02/11 19:30:11;;;;;;;3.70;1.30;;;3.00;99.90;;;;;;20665830;28;20311;-45
2022/02/11 19:40:12;;;;;;;8.23;1.88;;;2.80;99.90;;;;;;20810193;28;20038;-44
2022/02/11 19:50:14;;;;;;;6.38;1.90;;;2.70;99.90;;;;;;20784625;28;20527;-44
2022/02/11 20:00:17;;;;;;;5.18;2.22;;;2.80;99.90;;;;;;20689151;28;20053;-44
2022/02/11 20:10:21;;;;;;;7.88;2.88;;;2.70;99.90;;;;;;20748809;28;20048;-45
2022/02/11 20:20:27;;;;;;;5.28;2.75;;;2.60;99.90;;;;;;20748126;28;20046;-45
2022/02/11 20:30:29;;;;;;;9.45;4.32;;;2.50;99.90;;;;;;20764925;28;20784;-44
2022/02/11 20:40:30;;;;;;;5.88;2.55;;;2.50;99.90;;;;;;20756169;28;20405;-45
2022/02/11 20:50:36;;;;;;;4.35;1.33;;;2.30;99.90;;;;;;20762252;28;20393;-45
2022/02/11 21:00:38;;;;;;;3.05;1.55;;;2.30;99.90;;;;;;20768233;28;21022;-44
2022/02/11 21:10:39;;;;;;;10.48;1.83;;;2.40;99.90;;;;;;20729132;28;20045;-44
2022/02/11 21:20:40;;;;;;;7.18;2.03;;;2.30;99.90;;;;;;20757125;28;20065;-45
2022/02/11 21:30:41;;;;;;;3.40;1.67;;;2.20;99.90;;;;;;20759384;28;20065;-44
2022/02/11 21:40:43;;;;;;;5.40;1.40;;;2.10;99.90;;;;;;20744019;28;20145;-44
2022/02/11 21:50:47;;;;;;;2.00;1.20;;;1.90;99.90;;;;;;20754366;28;20537;-44
2022/02/11 22:00:48;;;;;;;2.50;1.23;;;1.80;99.90;;;;;;20734213;28;20057;-44
2022/02/11 22:10:49;;;;;;;4.72;2.00;;;1.70;99.90;;;;;;20725770;28;20041;-44
2022/02/11 22:20:50;;;;;;;6.13;1.95;;;1.60;99.90;;;;;;20716839;28;20524;-45
2022/02/11 22:30:51;;;;;;;4.20;1.67;;;1.70;99.90;;;;;;20714451;28;20601;-44
2022/02/11 22:40:52;;;;;;;4.10;1.55;;;1.60;99.90;;;;;;20727623;28;20060;-45
2022/02/11 23:01:13;;;;;;;3.13;1.27;;;1.70;99.90;;;;;;20267570;28;20766;-44
2022/02/11 23:11:20;;;;;;;6.25;2.00;;;1.50;99.90;;;;;;20420401;28;20089;-45
2022/02/11 23:21:23;;;;;;;3.22;1.25;;;1.40;99.90;;;;;;20705614;28;20046;-45
2022/02/11 23:31:24;;;;;;;9.15;1.83;;;1.60;99.90;;;;;;20718073;28;20394;-45
2022/02/11 23:41:25;;;;;;;4.47;1.80;;;1.80;99.90;;;;;;20732900;28;20057;-45
2022/02/11 23:51:26;;;;;;;5.38;1.63;;;1.90;99.90;;;;;;20728197;28;20037;-44
